createdAt,value
2022-10-17T00:01:26.412Z,3.08
2022-10-17T00:03:55.943Z,2.90
2022-10-17T00:06:24.173Z,2.53
2022-10-17T00:08:53.309Z,3.00
2022-10-17T00:11:23.443Z,2.40
2022-10-17T00:13:53.068Z,2.63
2022-10-17T00:16:25.537Z,2.70
2022-10-17T00:18:55.353Z,2.50
2022-10-17T00:21:24.831Z,2.47
2022-10-17T00:23:53.642Z,2.83
2022-10-17T00:26:22.501Z,2.13
2022-10-17T00:28:52.498Z,2.70
2022-10-17T00:31:22.991Z,3.00
2022-10-17T00:33:51.502Z,3.38
2022-10-17T00:36:23.629Z,3.13
2022-10-17T00:38:53.271Z,3.10
2022-10-17T00:41:24.779Z,3.58
2022-10-17T00:43:57.152Z,3.53
2022-10-17T00:46:27.535Z,2.97
2022-10-17T00:48:57.546Z,2.70
2022-10-17T00:51:32.944Z,2.63
2022-10-17T00:54:02.191Z,2.97
2022-10-17T00:56:31.845Z,2.80
2022-10-17T00:59:00.496Z,3.00
2022-10-17T01:01:28.936Z,2.97
2022-10-17T01:03:59.451Z,2.63
2022-10-17T01:06:29.042Z,3.03
2022-10-17T01:08:57.909Z,3.22
2022-10-17T01:11:37.138Z,2.72
2022-10-17T01:14:11.167Z,3.70
2022-10-17T01:16:49.158Z,3.55
2022-10-17T01:19:42.716Z,3.45
2022-10-17T01:22:16.119Z,2.72
2022-10-17T01:25:13.383Z,2.70
2022-10-17T01:28:00.585Z,3.10
2022-10-17T01:30:57.694Z,4.20
2022-10-17T01:33:50.856Z,3.20
2022-10-17T01:36:29.977Z,2.85
2022-10-17T01:39:03.397Z,3.50
2022-10-17T01:41:41.937Z,3.75
2022-10-17T01:44:15.258Z,2.95
2022-10-17T01:46:50.472Z,3.50
2022-10-17T01:49:22.996Z,3.60
2022-10-17T01:51:55.151Z,3.42
2022-10-17T01:54:26.734Z,4.18
2022-10-17T01:56:59.520Z,3.28
2022-10-17T01:59:32.965Z,4.90
2022-10-17T02:02:03.680Z,3.00
2022-10-17T02:04:32.050Z,3.95
2022-10-17T02:07:07.967Z,3.58
2022-10-17T02:09:36.294Z,3.88
2022-10-17T02:12:26.494Z,3.75
2022-10-17T02:15:17.952Z,3.28
2022-10-17T02:17:55.717Z,3.13
2022-10-17T02:20:29.319Z,3.20
2022-10-17T02:23:02.940Z,3.97
2022-10-17T02:25:41.614Z,2.90
2022-10-17T02:28:20.645Z,3.53
2022-10-17T02:30:55.812Z,3.78
2022-10-17T02:33:30.379Z,4.13
2022-10-17T02:36:02.931Z,3.20
2022-10-17T02:38:32.819Z,3.22
2022-10-17T02:41:02.398Z,3.20
2022-10-17T02:43:30.961Z,3.45
2022-10-17T02:46:00.026Z,4.00
2022-10-17T02:48:37.904Z,3.50
2022-10-17T02:51:12.256Z,3.33
2022-10-17T02:53:49.169Z,3.30
2022-10-17T02:56:21.264Z,3.10
2022-10-17T02:58:52.822Z,2.90
2022-10-17T03:01:22.127Z,4.30
2022-10-17T03:03:51.876Z,3.45
2022-10-17T03:06:20.109Z,2.40
2022-10-17T03:08:48.362Z,3.10
2022-10-17T03:11:16.694Z,2.80
2022-10-17T03:13:45.015Z,3.75
2022-10-17T03:16:13.092Z,3.70
2022-10-17T03:18:41.676Z,3.30
2022-10-17T03:21:13.048Z,3.40
2022-10-17T03:23:41.103Z,2.92
2022-10-17T03:26:09.744Z,3.13
2022-10-17T03:28:38.367Z,3.42
2022-10-17T03:31:10.873Z,3.55
2022-10-17T03:33:40.107Z,2.70
2022-10-17T03:36:09.403Z,3.50
2022-10-17T03:38:40.155Z,2.90
2022-10-17T03:41:09.492Z,3.30
2022-10-17T03:43:39.621Z,3.05
2022-10-17T03:46:08.362Z,3.08
2022-10-17T03:48:38.130Z,3.10
2022-10-17T03:51:09.624Z,3.08
2022-10-17T03:53:47.452Z,3.60
2022-10-17T03:56:18.140Z,3.10
2022-10-17T03:58:52.135Z,2.78
2022-10-17T04:01:20.802Z,4.00
2022-10-17T04:03:50.757Z,2.90
2022-10-17T04:06:20.764Z,3.67
2022-10-17T04:08:51.329Z,3.40
2022-10-17T04:11:25.451Z,3.20
2022-10-17T04:13:59.406Z,3.25
2022-10-17T04:16:28.618Z,3.58
2022-10-17T04:19:04.094Z,2.95
2022-10-17T04:21:38.269Z,2.88
2022-10-17T04:24:12.096Z,2.85
2022-10-17T04:26:55.162Z,3.65
2022-10-17T04:29:26.846Z,3.38
2022-10-17T04:32:02.414Z,3.10
2022-10-17T04:34:52.181Z,3.17
2022-10-17T04:37:23.099Z,2.92
2022-10-17T04:39:54.589Z,3.35
2022-10-17T04:42:23.023Z,3.58
2022-10-17T04:44:53.933Z,3.90
2022-10-17T04:47:24.737Z,3.92
2022-10-17T04:49:52.949Z,3.65
2022-10-17T04:52:23.120Z,3.53
2022-10-17T04:54:51.732Z,2.90
2022-10-17T04:57:23.837Z,3.47
2022-10-17T04:59:59.694Z,3.60
2022-10-17T05:02:47.186Z,3.00
2022-10-17T05:05:16.162Z,3.80
2022-10-17T05:07:46.389Z,3.45
2022-10-17T05:10:19.317Z,2.85
2022-10-17T05:12:52.132Z,2.83
2022-10-17T05:15:23.674Z,3.28
2022-10-17T05:17:56.218Z,3.35
2022-10-17T05:20:26.217Z,3.30
2022-10-17T05:22:54.692Z,3.40
2022-10-17T05:25:23.259Z,3.80
2022-10-17T05:27:52.699Z,3.30
2022-10-17T05:30:21.291Z,2.65
2022-10-17T05:32:54.502Z,3.20
2022-10-17T05:35:22.969Z,3.58
2022-10-17T05:37:51.197Z,2.92
2022-10-17T05:40:20.068Z,3.92
2022-10-17T05:42:48.874Z,3.10
2022-10-17T05:45:20.361Z,3.67
2022-10-17T05:47:48.673Z,3.50
2022-10-17T05:50:20.927Z,2.85
2022-10-17T05:53:09.667Z,2.88
2022-10-17T05:55:43.098Z,3.45
2022-10-17T05:58:17.757Z,3.42
2022-10-17T06:01:00.875Z,4.00
2022-10-17T06:03:29.704Z,3.65
2022-10-17T06:05:58.221Z,3.63
2022-10-17T06:08:26.356Z,2.85
2022-10-17T06:10:54.647Z,4.25
2022-10-17T06:13:23.229Z,3.70
2022-10-17T06:15:53.464Z,3.75
2022-10-17T06:18:23.033Z,3.00
2022-10-17T06:20:51.421Z,3.55
2022-10-17T06:23:20.851Z,3.38
2022-10-17T06:25:59.774Z,2.95
2022-10-17T06:28:28.254Z,3.20
2022-10-17T06:30:56.582Z,3.35
2022-10-17T06:33:26.351Z,3.40
2022-10-17T06:35:55.675Z,3.17
2022-10-17T06:38:25.155Z,3.47
2022-10-17T06:40:57.922Z,3.08
2022-10-17T06:43:28.017Z,3.55
2022-10-17T06:46:15.482Z,3.22
2022-10-17T06:48:56.921Z,3.60
2022-10-17T06:51:40.124Z,3.63
2022-10-17T06:54:11.253Z,3.60
2022-10-17T06:57:11.614Z,3.00
2022-10-17T06:59:53.357Z,3.97
2022-10-17T07:02:26.776Z,3.70
2022-10-17T07:04:58.085Z,3.90
2022-10-17T07:07:26.445Z,3.97
2022-10-17T07:09:54.692Z,4.97
2022-10-17T07:12:23.433Z,3.50
2022-10-17T07:14:52.307Z,3.95
2022-10-17T07:17:20.944Z,3.40
2022-10-17T07:19:49.144Z,4.13
2022-10-17T07:22:19.617Z,4.05
2022-10-17T07:27:31.039Z,3.78
2022-10-17T07:30:00.045Z,3.97
2022-10-17T07:32:39.969Z,3.50
2022-10-17T07:35:10.556Z,3.00
2022-10-17T07:37:41.111Z,3.30
2022-10-17T07:40:11.937Z,3.22
2022-10-17T07:45:09.380Z,2.55
2022-10-17T07:47:38.410Z,3.40
2022-10-17T07:50:09.698Z,2.60
2022-10-17T07:52:37.754Z,3.67
2022-10-17T07:55:08.987Z,2.53
2022-10-17T07:57:37.132Z,2.90
2022-10-17T08:00:06.268Z,3.58
2022-10-17T08:02:40.700Z,2.85
2022-10-17T08:05:09.392Z,3.40
2022-10-17T08:07:52.724Z,3.20
2022-10-17T08:10:27.606Z,3.03
2022-10-17T08:12:56.189Z,3.47
2022-10-17T08:15:27.943Z,3.08
2022-10-17T08:17:59.763Z,2.60
2022-10-17T08:20:27.975Z,3.17
2022-10-17T08:22:56.665Z,2.90
2022-10-17T08:25:26.203Z,2.88
2022-10-17T08:27:54.410Z,3.20
2022-10-17T08:30:22.565Z,2.60
2022-10-17T08:32:50.791Z,3.30
2022-10-17T08:35:19.272Z,3.30
2022-10-17T08:37:47.348Z,2.42
2022-10-17T08:40:20.635Z,2.83
2022-10-17T08:43:10.693Z,2.70
2022-10-17T08:45:47.018Z,3.00
2022-10-17T08:48:19.500Z,2.75
2022-10-17T08:50:52.597Z,2.45
2022-10-17T08:53:25.698Z,3.20
2022-10-17T08:55:55.683Z,3.10
2022-10-17T08:58:27.197Z,3.22
2022-10-17T09:01:07.003Z,3.45
2022-10-17T09:03:46.699Z,2.40
2022-10-17T09:06:21.167Z,3.10
2022-10-17T09:09:01.359Z,2.90
2022-10-17T09:11:44.577Z,2.90
2022-10-17T09:14:31.304Z,2.50
2022-10-17T09:17:09.887Z,2.63
2022-10-17T09:19:41.689Z,2.72
2022-10-17T09:22:14.371Z,2.70
2022-10-17T09:24:47.353Z,2.20
2022-10-17T09:27:25.008Z,3.13
2022-10-17T09:30:21.453Z,2.55
2022-10-17T09:32:55.831Z,3.00
2022-10-17T09:35:25.721Z,3.03
2022-10-17T09:37:54.544Z,2.88
2022-10-17T09:40:30.301Z,3.78
2022-10-17T09:42:59.709Z,2.65
2022-10-17T09:45:33.692Z,2.33
2022-10-17T09:48:09.127Z,2.42
2022-10-17T09:50:37.888Z,3.30
2022-10-17T09:53:13.494Z,3.33
2022-10-17T09:55:44.621Z,3.08
2022-10-17T09:58:13.737Z,3.03
2022-10-17T10:00:45.705Z,2.27
2022-10-17T10:03:19.290Z,2.70
2022-10-17T10:06:03.779Z,2.83
2022-10-17T10:08:34.039Z,2.37
2022-10-17T10:11:05.134Z,3.10
2022-10-17T10:13:34.472Z,2.70
2022-10-17T10:16:18.389Z,2.67
2022-10-17T10:18:48.727Z,2.63
2022-10-17T10:21:21.509Z,2.50
2022-10-17T10:24:06.015Z,2.80
2022-10-17T10:26:39.817Z,2.50
2022-10-17T10:29:23.397Z,2.73
2022-10-17T10:31:55.105Z,2.63
2022-10-17T10:34:27.038Z,2.43
2022-10-17T10:37:00.714Z,2.50
2022-10-17T10:39:49.817Z,2.10
2022-10-17T10:42:28.834Z,2.40
2022-10-17T10:45:02.385Z,2.33
2022-10-17T10:47:33.463Z,2.77
2022-10-17T10:50:18.312Z,3.00
2022-10-17T10:52:52.306Z,1.83
2022-10-17T10:55:27.911Z,2.33
2022-10-17T10:58:01.151Z,2.40
2022-10-17T11:00:32.708Z,2.30
2022-10-17T11:03:12.776Z,2.40
2022-10-17T11:05:47.284Z,3.00
2022-10-17T11:08:24.434Z,2.50
2022-10-17T11:11:05.685Z,2.23
2022-10-17T11:13:40.147Z,2.57
2022-10-17T11:16:24.556Z,2.77
2022-10-17T11:19:10.426Z,2.63
2022-10-17T11:21:46.681Z,1.90
2022-10-17T11:24:20.815Z,2.80
2022-10-17T11:26:55.763Z,2.67
2022-10-17T11:29:29.157Z,2.27
2022-10-17T11:32:00.479Z,2.87
2022-10-17T11:34:33.857Z,2.00
2022-10-17T11:37:07.260Z,2.17
2022-10-17T11:39:48.526Z,2.20
2022-10-17T11:42:22.293Z,2.20
2022-10-17T11:44:57.430Z,2.37
2022-10-17T11:47:35.700Z,2.50
2022-10-17T11:53:13.242Z,2.30
2022-10-17T11:55:42.841Z,2.97
2022-10-17T11:58:24.651Z,2.87
2022-10-17T12:01:00.877Z,2.60
2022-10-17T12:03:41.383Z,2.60
2022-10-17T12:06:17.232Z,2.27
2022-10-17T12:08:53.444Z,2.53
2022-10-17T12:11:35.661Z,2.33
2022-10-17T12:14:06.172Z,2.73
2022-10-17T12:16:49.487Z,2.60
2022-10-17T12:19:30.913Z,3.40
2022-10-17T12:22:04.780Z,2.87
2022-10-17T12:24:40.503Z,2.87
2022-10-17T12:27:38.272Z,2.80
2022-10-17T12:30:16.841Z,2.70
2022-10-17T12:33:06.289Z,2.63
2022-10-17T12:35:37.975Z,2.53
2022-10-17T12:38:31.438Z,2.63
2022-10-17T12:41:05.779Z,2.67
2022-10-17T12:43:58.805Z,2.67
2022-10-17T12:46:48.531Z,2.80
2022-10-17T12:49:51.099Z,3.23
2022-10-17T12:52:27.165Z,2.73
2022-10-17T12:55:11.948Z,2.43
2022-10-17T12:58:01.297Z,2.70
2022-10-17T13:00:36.140Z,3.17
2022-10-17T13:03:14.213Z,2.90
2022-10-17T13:05:45.457Z,2.87
2022-10-17T13:08:19.461Z,2.20
2022-10-17T13:10:52.735Z,2.50
2022-10-17T13:13:24.800Z,2.60
2022-10-17T13:15:56.013Z,3.30
2022-10-17T13:18:27.325Z,2.23
2022-10-17T13:21:01.532Z,2.50
2022-10-17T13:28:29.291Z,2.40
2022-10-17T13:30:57.722Z,2.43
2022-10-17T13:33:43.916Z,3.03
2022-10-17T13:36:18.886Z,2.10
2022-10-17T13:38:48.209Z,2.57
2022-10-17T13:41:36.528Z,2.83
2022-10-17T13:44:15.275Z,2.10
2022-10-17T13:46:52.639Z,2.50
2022-10-17T13:49:32.724Z,2.50
2022-10-17T13:52:05.004Z,2.80
2022-10-17T13:54:37.017Z,2.30
2022-10-17T13:57:06.374Z,2.33
2022-10-17T13:59:40.626Z,2.30
2022-10-17T14:02:16.566Z,2.50
2022-10-17T14:05:15.004Z,2.33
2022-10-17T14:08:05.797Z,3.20
2022-10-17T14:10:31.777Z,2.60
2022-10-17T14:13:01.777Z,3.93
2022-10-17T14:15:33.640Z,6.70
2022-10-17T14:18:08.112Z,5.93
2022-10-17T14:23:33.114Z,4.87
2022-10-17T14:26:16.494Z,2.90
2022-10-17T14:28:47.142Z,2.77
2022-10-17T14:31:31.253Z,2.97
2022-10-17T14:34:03.132Z,2.43
2022-10-17T14:36:34.413Z,2.47
2022-10-17T14:39:03.798Z,2.67
2022-10-17T14:41:44.043Z,2.77
2022-10-17T14:44:20.619Z,2.37
2022-10-17T14:46:54.108Z,2.40
2022-10-17T14:49:29.543Z,2.30
2022-10-17T14:52:26.393Z,2.30
2022-10-17T14:54:54.954Z,2.57
2022-10-17T14:57:41.742Z,2.60
2022-10-17T15:00:14.597Z,2.03
2022-10-17T15:02:44.828Z,2.00
2022-10-17T15:05:13.723Z,2.87
2022-10-17T15:07:42.158Z,2.23
2022-10-17T15:10:25.636Z,2.33
2022-10-17T15:12:57.546Z,2.87
2022-10-17T15:15:28.770Z,2.10
2022-10-17T15:17:58.400Z,2.80
2022-10-17T15:20:29.618Z,2.57
2022-10-17T15:22:59.378Z,2.67
2022-10-17T15:25:28.348Z,2.60
2022-10-17T15:27:57.461Z,2.50
2022-10-17T15:30:29.645Z,2.63
2022-10-17T15:33:00.138Z,2.40
2022-10-17T15:35:29.690Z,2.97
2022-10-17T15:37:58.025Z,2.40
2022-10-17T15:40:29.195Z,2.50
2022-10-17T15:42:57.972Z,2.63
2022-10-17T15:45:26.503Z,3.00
2022-10-17T15:47:57.255Z,2.40
2022-10-17T15:50:28.986Z,2.70
2022-10-17T15:52:57.333Z,2.80
2022-10-17T15:55:25.676Z,3.17
2022-10-17T15:57:53.838Z,3.17
2022-10-17T16:00:23.602Z,2.70
2022-10-17T16:02:52.717Z,3.40
2022-10-17T16:05:23.784Z,2.77
2022-10-17T16:07:54.451Z,2.67
2022-10-17T16:10:23.270Z,2.70
2022-10-17T16:12:51.608Z,2.90
2022-10-17T16:15:22.574Z,2.80
2022-10-17T16:17:50.732Z,3.13
2022-10-17T16:20:20.274Z,2.50
2022-10-17T16:23:02.328Z,2.70
2022-10-17T16:25:32.516Z,3.00
2022-10-17T16:28:01.807Z,2.67
2022-10-17T16:30:31.818Z,2.83
2022-10-17T16:33:00.170Z,2.77
2022-10-17T16:35:34.846Z,2.70
2022-10-17T16:38:07.763Z,2.80
2022-10-17T16:40:38.573Z,2.50
2022-10-17T16:43:06.705Z,3.00
2022-10-17T16:45:34.871Z,3.07
2022-10-17T16:48:09.406Z,2.73
2022-10-17T16:50:40.785Z,3.20
2022-10-17T16:53:10.156Z,2.83
2022-10-17T16:55:38.303Z,3.93
2022-10-17T16:58:10.099Z,3.10
2022-10-17T17:00:40.219Z,3.67
2022-10-17T17:03:08.246Z,3.33
2022-10-17T17:05:36.378Z,3.33
2022-10-17T17:08:05.494Z,3.40
2022-10-17T17:10:36.451Z,4.00
2022-10-17T17:13:04.660Z,2.90
2022-10-17T17:15:32.747Z,3.50
2022-10-17T17:18:05.365Z,3.03
2022-10-17T17:20:34.412Z,3.27
2022-10-17T17:23:02.932Z,2.90
2022-10-17T17:25:36.670Z,3.20
2022-10-17T17:28:04.836Z,3.33
2022-10-17T17:30:34.318Z,3.70
2022-10-17T17:33:02.677Z,3.37
2022-10-17T17:35:31.559Z,3.33
2022-10-17T17:38:24.687Z,3.37
2022-10-17T17:40:54.025Z,3.27
2022-10-17T17:43:23.426Z,3.77
2022-10-17T17:45:51.835Z,2.90
2022-10-17T17:48:20.282Z,3.37
2022-10-17T17:50:48.783Z,3.60
2022-10-17T17:53:17.875Z,3.08
2022-10-17T17:55:46.537Z,3.40
2022-10-17T17:58:20.657Z,3.50
2022-10-17T18:00:48.849Z,3.30
2022-10-17T18:03:17.978Z,3.33
2022-10-17T18:05:45.936Z,3.40
2022-10-17T18:08:13.984Z,3.30
2022-10-17T18:10:42.125Z,3.83
2022-10-17T18:13:10.334Z,4.43
2022-10-17T18:15:41.650Z,4.13
2022-10-17T18:18:09.786Z,3.67
2022-10-17T18:20:58.022Z,3.67
2022-10-17T18:23:26.093Z,4.10
2022-10-17T18:25:55.302Z,3.35
2022-10-17T18:28:25.098Z,3.85
2022-10-17T18:30:55.028Z,3.67
2022-10-17T18:33:23.214Z,3.17
2022-10-17T18:35:51.444Z,3.40
2022-10-17T18:38:19.731Z,4.38
2022-10-17T18:40:50.009Z,3.90
2022-10-17T18:43:18.888Z,4.10
2022-10-17T18:45:47.179Z,3.88
2022-10-17T18:48:16.723Z,4.33
2022-10-17T18:50:44.886Z,4.10
2022-10-17T18:53:13.013Z,4.40
2022-10-17T18:55:41.188Z,4.20
2022-10-17T18:58:09.418Z,4.45
2022-10-17T19:00:37.696Z,3.90
2022-10-17T19:03:05.904Z,3.45
2022-10-17T19:05:35.247Z,3.38
2022-10-17T19:08:03.416Z,4.15
2022-10-17T19:11:07.356Z,4.28
2022-10-17T19:13:36.357Z,3.50
2022-10-17T19:16:07.288Z,3.88
2022-10-17T19:18:35.343Z,3.60
2022-10-17T19:21:06.302Z,3.72
2022-10-17T19:23:36.025Z,3.97
2022-10-17T19:26:05.528Z,4.25
2022-10-17T19:28:34.222Z,4.55
2022-10-17T19:31:02.435Z,5.55
2022-10-17T19:33:31.943Z,4.55
2022-10-17T19:36:02.117Z,4.63
2022-10-17T19:38:31.787Z,5.00
2022-10-17T19:43:28.391Z,4.68
2022-10-17T19:45:57.382Z,4.20
2022-10-17T19:48:25.887Z,5.45
2022-10-17T19:50:54.453Z,5.35
2022-10-17T19:53:24.423Z,5.00
2022-10-17T19:55:54.813Z,4.57
2022-10-17T19:58:23.158Z,5.30
2022-10-17T20:00:52.447Z,5.05
2022-10-17T20:03:20.687Z,5.05
2022-10-17T20:05:48.966Z,5.53
2022-10-17T20:08:18.226Z,4.45
2022-10-17T20:10:46.554Z,4.50
2022-10-17T20:13:15.923Z,4.85
2022-10-17T20:15:43.931Z,4.57
2022-10-17T20:18:12.278Z,5.03
2022-10-17T20:20:40.254Z,4.50
2022-10-17T20:23:08.387Z,4.65
2022-10-17T20:26:13.214Z,4.70
2022-10-17T20:28:50.264Z,4.85
2022-10-17T20:31:18.727Z,5.32
2022-10-17T20:33:46.631Z,4.25
2022-10-17T20:36:16.622Z,4.78
2022-10-17T20:38:44.595Z,5.18
2022-10-17T20:41:12.545Z,4.30
2022-10-17T20:43:40.478Z,4.93
2022-10-17T20:46:29.390Z,4.32
2022-10-17T20:49:04.097Z,4.38
2022-10-17T20:51:32.125Z,4.40
2022-10-17T20:54:00.306Z,4.10
2022-10-17T20:56:30.297Z,4.60
2022-10-17T20:59:00.060Z,5.05
2022-10-17T21:01:31.084Z,4.72
2022-10-17T21:07:06.769Z,4.72
2022-10-17T21:09:34.876Z,5.10
2022-10-17T21:12:05.450Z,4.32
2022-10-17T21:14:36.416Z,4.60
2022-10-17T21:17:06.079Z,4.55
2022-10-17T21:19:34.751Z,4.55
2022-10-17T21:22:02.999Z,5.00
2022-10-17T21:24:32.051Z,4.38
2022-10-17T21:27:00.150Z,4.35
2022-10-17T21:29:28.347Z,4.80
2022-10-17T21:31:56.421Z,4.78
2022-10-17T21:34:25.800Z,4.38
2022-10-17T21:36:54.364Z,4.53
2022-10-17T21:39:24.205Z,4.60
2022-10-17T21:41:53.243Z,5.07
2022-10-17T21:44:23.241Z,4.80
2022-10-17T21:46:52.131Z,4.38
2022-10-17T21:49:25.751Z,5.47
2022-10-17T21:51:54.181Z,4.90
2022-10-17T21:54:23.912Z,5.38
2022-10-17T21:56:52.394Z,4.35
2022-10-17T21:59:52.277Z,5.15
2022-10-17T22:02:20.318Z,5.00
2022-10-17T22:04:49.740Z,5.20
2022-10-17T22:07:18.789Z,4.57
2022-10-17T22:09:58.136Z,4.78
2022-10-17T22:12:26.023Z,4.70
2022-10-17T22:14:54.120Z,5.45
2022-10-17T22:17:22.073Z,6.00
2022-10-17T22:19:51.539Z,5.10
2022-10-17T22:22:19.411Z,5.50
2022-10-17T22:24:47.386Z,5.32
2022-10-17T22:27:15.354Z,5.43
2022-10-17T22:29:43.300Z,6.47
2022-10-17T22:32:11.236Z,5.32
2022-10-17T22:34:39.352Z,4.90
2022-10-17T22:37:08.819Z,4.03
2022-10-17T22:39:36.734Z,4.88
2022-10-17T22:42:04.879Z,4.63
2022-10-17T22:44:33.147Z,5.35
2022-10-17T22:47:01.132Z,4.55
2022-10-17T22:49:29.087Z,5.22
2022-10-17T22:51:57.233Z,5.55
2022-10-17T22:54:26.581Z,5.32
2022-10-17T22:56:54.567Z,5.32
2022-10-17T22:59:22.720Z,5.15
2022-10-17T23:01:50.722Z,4.35
2022-10-17T23:04:18.690Z,4.32
2022-10-17T23:06:46.776Z,5.18
2022-10-17T23:09:14.787Z,5.50
2022-10-17T23:11:44.103Z,5.18
2022-10-17T23:14:12.317Z,4.93
2022-10-17T23:16:40.424Z,4.75
2022-10-17T23:19:08.393Z,5.22
2022-10-17T23:21:36.289Z,4.80
2022-10-17T23:24:04.260Z,5.82
2022-10-17T23:26:33.408Z,4.72
2022-10-17T23:29:02.752Z,4.88
2022-10-17T23:31:30.687Z,4.20
2022-10-17T23:33:59.591Z,5.40
2022-10-17T23:36:27.540Z,5.30
2022-10-17T23:38:58.435Z,5.32
2022-10-17T23:41:26.853Z,4.65
2022-10-17T23:43:54.778Z,5.72
2022-10-17T23:46:24.136Z,5.65
2022-10-17T23:48:52.057Z,6.20
2022-10-17T23:51:20.176Z,5.85
2022-10-17T23:53:48.299Z,5.95
2022-10-17T23:56:16.321Z,5.85
2022-10-17T23:58:44.182Z,5.97
